createdAt,value
2022-11-10T00:00:18.889Z,68.00
2022-11-10T00:02:45.792Z,68.00
2022-11-10T00:05:12.897Z,68.00
2022-11-10T00:07:39.834Z,68.10
2022-11-10T00:10:07.138Z,68.20
2022-11-10T00:12:33.995Z,68.20
2022-11-10T00:15:19.341Z,68.10
2022-11-10T00:17:46.005Z,68.30
2022-11-10T00:20:12.992Z,68.20
2022-11-10T00:22:40.542Z,68.10
2022-11-10T00:25:07.689Z,68.10
2022-11-10T00:27:34.567Z,68.30
2022-11-10T00:30:01.288Z,68.20
2022-11-10T00:32:28.004Z,68.20
2022-11-10T00:34:54.650Z,68.30
2022-11-10T00:37:21.366Z,68.10
2022-11-10T00:39:48.201Z,68.20
2022-11-10T00:42:15.033Z,68.20
2022-11-10T00:44:41.978Z,68.10
2022-11-10T00:47:08.654Z,68.00
2022-11-10T00:49:35.319Z,68.00
2022-11-10T00:52:01.947Z,68.00
2022-11-10T00:54:28.623Z,68.00
2022-11-10T00:56:55.369Z,67.90
2022-11-10T00:59:21.994Z,68.00
2022-11-10T01:01:48.667Z,68.00
2022-11-10T01:04:15.325Z,67.90
2022-11-10T01:06:42.049Z,68.00
2022-11-10T01:09:09.046Z,68.00
2022-11-10T01:11:35.699Z,67.90
2022-11-10T01:14:02.403Z,67.90
2022-11-10T01:16:30.325Z,68.00
2022-11-10T01:18:58.091Z,67.90
2022-11-10T01:21:25.122Z,67.90
2022-11-10T01:23:51.866Z,67.90
2022-11-10T01:26:18.913Z,67.80
2022-11-10T01:28:46.019Z,67.80
2022-11-10T01:31:14.530Z,67.90
2022-11-10T01:33:41.195Z,68.10
2022-11-10T01:36:08.494Z,67.90
2022-11-10T01:38:36.089Z,68.00
2022-11-10T01:41:03.725Z,68.00
2022-11-10T01:43:30.421Z,68.00
2022-11-10T01:46:01.505Z,68.00
2022-11-10T01:48:28.268Z,68.10
2022-11-10T01:50:55.628Z,67.90
2022-11-10T01:53:24.990Z,68.20
2022-11-10T01:55:52.323Z,68.20
2022-11-10T01:58:20.985Z,68.10
2022-11-10T02:00:47.734Z,68.10
2022-11-10T02:03:24.069Z,68.20
2022-11-10T02:05:51.193Z,68.20
2022-11-10T02:08:18.555Z,68.30
2022-11-10T02:10:45.242Z,68.20
2022-11-10T02:13:12.169Z,68.20
2022-11-10T02:15:39.042Z,68.30
2022-11-10T02:18:05.766Z,68.20
2022-11-10T02:20:32.442Z,68.10
2022-11-10T02:22:59.125Z,68.10
2022-11-10T02:25:28.787Z,68.20
2022-11-10T02:27:55.467Z,68.10
2022-11-10T02:30:27.384Z,68.10
2022-11-10T02:32:54.417Z,68.20
2022-11-10T02:35:21.075Z,68.10
2022-11-10T02:37:47.723Z,68.10
2022-11-10T02:40:14.385Z,68.10
2022-11-10T02:42:41.053Z,68.10
2022-11-10T02:45:08.813Z,68.20
2022-11-10T02:47:35.587Z,68.20
2022-11-10T02:50:02.244Z,68.10
2022-11-10T02:52:28.927Z,68.20
2022-11-10T02:54:55.599Z,68.20
2022-11-10T02:57:22.249Z,68.00
2022-11-10T02:59:49.062Z,68.00
2022-11-10T03:02:15.739Z,68.20
2022-11-10T03:04:42.484Z,68.20
2022-11-10T03:07:09.205Z,68.10
2022-11-10T03:09:35.960Z,68.20
2022-11-10T03:12:02.637Z,68.20
2022-11-10T03:14:29.278Z,68.10
2022-11-10T03:16:55.957Z,68.10
2022-11-10T03:19:22.623Z,67.90
2022-11-10T03:21:49.300Z,68.00
2022-11-10T03:24:16.054Z,68.10
2022-11-10T03:26:42.716Z,68.10
2022-11-10T03:29:09.349Z,68.30
2022-11-10T03:31:35.990Z,68.20
2022-11-10T03:34:02.634Z,68.20
2022-11-10T03:36:29.272Z,68.10
2022-11-10T03:38:57.017Z,68.20
2022-11-10T03:41:23.673Z,68.20
2022-11-10T03:43:51.128Z,68.20
2022-11-10T03:46:18.291Z,68.30
2022-11-10T03:48:50.198Z,68.10
2022-11-10T03:51:19.794Z,68.10
2022-11-10T03:53:46.426Z,68.20
2022-11-10T03:56:13.274Z,68.40
2022-11-10T03:58:40.385Z,68.40
2022-11-10T04:01:07.125Z,68.30
2022-11-10T04:03:34.118Z,68.30
2022-11-10T04:06:19.334Z,68.30
2022-11-10T04:09:00.890Z,68.30
2022-11-10T04:11:47.328Z,68.20
2022-11-10T04:14:32.905Z,68.00
2022-11-10T04:16:59.905Z,68.10
2022-11-10T04:19:26.658Z,68.30
2022-11-10T04:21:53.554Z,68.00
2022-11-10T04:24:20.455Z,68.30
2022-11-10T04:26:48.624Z,68.20
2022-11-10T04:29:16.540Z,68.20
2022-11-10T04:31:43.501Z,68.00
2022-11-10T04:34:11.930Z,68.00
2022-11-10T04:36:39.715Z,68.10
2022-11-10T04:39:06.883Z,68.00
2022-11-10T04:41:34.021Z,68.20
2022-11-10T04:44:00.700Z,68.10
2022-11-10T04:46:29.241Z,68.10
2022-11-10T04:48:55.994Z,68.20
2022-11-10T04:51:24.160Z,67.90
2022-11-10T04:53:50.881Z,68.20
2022-11-10T04:56:18.433Z,68.60
2022-11-10T04:58:45.454Z,67.90
2022-11-10T05:01:13.185Z,67.70
2022-11-10T05:03:40.214Z,67.50
2022-11-10T05:06:07.065Z,67.30
2022-11-10T05:08:33.825Z,67.30
2022-11-10T05:11:00.469Z,67.20
2022-11-10T05:13:27.402Z,67.20
2022-11-10T05:15:54.122Z,67.10
2022-11-10T05:18:20.871Z,67.10
2022-11-10T05:20:47.546Z,67.00
2022-11-10T05:23:32.946Z,66.80
2022-11-10T05:25:59.702Z,66.80
2022-11-10T05:28:26.343Z,66.80
2022-11-10T05:30:53.013Z,66.80
2022-11-10T05:33:20.102Z,66.60
2022-11-10T05:35:48.678Z,66.70
2022-11-10T05:38:15.353Z,66.60
2022-11-10T05:40:42.047Z,66.60
2022-11-10T05:43:09.024Z,66.10
2022-11-10T05:45:35.705Z,66.90
2022-11-10T05:48:02.947Z,66.70
2022-11-10T05:50:29.629Z,66.60
2022-11-10T05:52:56.414Z,66.50
2022-11-10T05:55:24.488Z,66.50
2022-11-10T05:57:52.004Z,66.60
2022-11-10T06:00:23.259Z,66.70
2022-11-10T06:02:57.092Z,66.80
2022-11-10T06:05:28.311Z,66.70
2022-11-10T06:07:57.988Z,66.60
2022-11-10T06:10:24.870Z,66.50
2022-11-10T06:12:51.770Z,66.50
2022-11-10T06:15:18.859Z,66.60
2022-11-10T06:17:45.609Z,66.70
2022-11-10T06:20:13.077Z,66.60
2022-11-10T06:22:40.146Z,66.60
2022-11-10T06:25:07.814Z,66.60
2022-11-10T06:27:34.787Z,66.50
2022-11-10T06:30:01.670Z,66.50
2022-11-10T06:32:29.205Z,66.60
2022-11-10T06:35:00.315Z,66.70
2022-11-10T06:37:27.553Z,66.60
2022-11-10T06:39:54.272Z,66.50
2022-11-10T06:42:21.139Z,66.50
2022-11-10T06:44:47.845Z,66.50
2022-11-10T06:47:15.429Z,66.50
2022-11-10T06:49:42.175Z,66.50
2022-11-10T06:52:09.074Z,66.40
2022-11-10T06:54:35.788Z,66.40
2022-11-10T06:57:02.598Z,66.40
2022-11-10T06:59:29.310Z,66.50
2022-11-10T07:01:56.091Z,66.50
2022-11-10T07:04:22.810Z,66.40
2022-11-10T07:06:49.641Z,66.50
2022-11-10T07:09:16.381Z,66.60
2022-11-10T07:11:43.373Z,66.70
2022-11-10T07:14:10.104Z,66.70
2022-11-10T07:16:36.948Z,66.60
2022-11-10T07:19:03.778Z,66.60
2022-11-10T07:21:30.509Z,66.40
2022-11-10T07:23:57.181Z,66.20
2022-11-10T07:26:23.826Z,65.90
2022-11-10T07:28:50.497Z,65.60
2022-11-10T07:31:17.217Z,65.60
2022-11-10T07:33:44.187Z,65.90
2022-11-10T07:36:10.893Z,66.00
2022-11-10T07:38:37.605Z,66.00
2022-11-10T07:41:04.354Z,66.00
2022-11-10T07:43:31.069Z,65.70
2022-11-10T07:45:57.766Z,65.70
2022-11-10T07:48:24.512Z,65.60
2022-11-10T07:50:51.225Z,65.80
2022-11-10T07:53:20.032Z,65.70
2022-11-10T07:55:46.948Z,65.70
2022-11-10T07:58:15.027Z,65.60
2022-11-10T08:00:41.802Z,65.70
2022-11-10T08:03:11.057Z,65.80
2022-11-10T08:05:38.363Z,65.90
2022-11-10T08:08:05.203Z,65.90
2022-11-10T08:10:32.393Z,65.80
2022-11-10T08:13:00.262Z,65.80
2022-11-10T08:15:27.661Z,65.80
2022-11-10T08:18:01.240Z,66.00
2022-11-10T08:20:28.267Z,66.20
2022-11-10T08:23:02.375Z,66.10
2022-11-10T08:25:34.480Z,66.00
2022-11-10T08:28:03.411Z,66.00
2022-11-10T08:30:30.404Z,66.10
2022-11-10T08:32:58.518Z,66.10
2022-11-10T08:35:25.834Z,66.10
2022-11-10T08:37:52.663Z,66.00
2022-11-10T08:40:20.445Z,65.90
2022-11-10T08:42:47.466Z,66.00
2022-11-10T08:45:14.664Z,66.10
2022-11-10T08:47:41.530Z,66.10
2022-11-10T08:50:08.407Z,66.00
2022-11-10T08:52:35.050Z,65.90
2022-11-10T08:55:01.741Z,65.90
2022-11-10T08:57:28.614Z,66.10
2022-11-10T08:59:55.343Z,66.20
2022-11-10T09:02:22.000Z,66.10
2022-11-10T09:04:48.805Z,65.90
2022-11-10T09:07:15.607Z,65.90
2022-11-10T09:09:42.385Z,65.90
2022-11-10T09:12:09.296Z,66.10
2022-11-10T09:14:36.039Z,65.90
2022-11-10T09:17:02.778Z,65.90
2022-11-10T09:19:29.532Z,65.70
2022-11-10T09:21:56.294Z,65.40
2022-11-10T09:24:25.912Z,65.20
2022-11-10T09:26:56.940Z,65.10
2022-11-10T09:29:25.536Z,65.00
2022-11-10T09:31:52.365Z,65.00
2022-11-10T09:34:19.062Z,65.80
2022-11-10T09:36:45.746Z,65.10
2022-11-10T09:39:12.434Z,64.90
2022-11-10T09:41:40.082Z,65.10
2022-11-10T09:44:23.631Z,65.20
2022-11-10T09:46:57.154Z,65.20
2022-11-10T09:49:33.194Z,65.20
2022-11-10T09:52:00.685Z,65.40
2022-11-10T09:54:27.392Z,65.40
2022-11-10T09:57:00.271Z,65.30
2022-11-10T09:59:32.294Z,65.30
2022-11-10T10:02:17.198Z,65.40
2022-11-10T10:04:56.139Z,65.40
2022-11-10T10:07:25.998Z,65.60
2022-11-10T10:10:17.340Z,65.60
2022-11-10T10:13:03.419Z,65.60
2022-11-10T10:15:39.056Z,65.60
2022-11-10T10:18:13.180Z,65.70
2022-11-10T10:20:55.282Z,65.80
2022-11-10T10:23:30.481Z,65.90
2022-11-10T10:26:10.249Z,65.90
2022-11-10T10:28:38.286Z,66.50
2022-11-10T10:31:25.391Z,65.80
2022-11-10T10:33:52.746Z,65.80
2022-11-10T10:36:22.409Z,65.80
2022-11-10T10:38:50.759Z,66.00
2022-11-10T10:41:28.022Z,66.00
2022-11-10T10:43:56.083Z,66.10
2022-11-10T10:46:28.417Z,66.00
2022-11-10T10:49:31.708Z,66.00
2022-11-10T10:52:02.358Z,65.90
2022-11-10T10:54:29.062Z,66.00
2022-11-10T10:57:03.175Z,66.10
2022-11-10T10:59:29.951Z,66.10
2022-11-10T11:01:57.019Z,66.10
2022-11-10T11:04:29.841Z,66.20
2022-11-10T11:07:16.536Z,66.10
2022-11-10T11:09:44.200Z,66.30
2022-11-10T11:12:25.440Z,66.50
2022-11-10T11:14:53.948Z,66.40
2022-11-10T11:17:21.904Z,66.20
2022-11-10T11:19:58.539Z,65.90
2022-11-10T11:22:50.499Z,65.80
2022-11-10T11:25:27.325Z,65.50
2022-11-10T11:27:53.998Z,65.40
2022-11-10T11:30:22.231Z,65.50
2022-11-10T11:33:06.450Z,65.60
2022-11-10T11:35:35.978Z,65.60
2022-11-10T11:38:12.150Z,65.50
2022-11-10T11:40:48.128Z,65.40
2022-11-10T11:43:24.071Z,65.40
2022-11-10T11:46:03.525Z,65.60
2022-11-10T11:48:30.223Z,65.60
2022-11-10T11:51:18.411Z,65.80
2022-11-10T11:53:50.966Z,65.80
2022-11-10T11:56:30.606Z,65.70
2022-11-10T11:59:01.986Z,65.70
2022-11-10T12:01:31.374Z,65.70
2022-11-10T12:04:16.828Z,65.80
2022-11-10T12:06:52.727Z,65.90
2022-11-10T12:09:19.386Z,66.00
2022-11-10T12:11:49.235Z,65.90
2022-11-10T12:14:19.080Z,65.90
2022-11-10T12:23:46.026Z,65.90
2022-11-10T12:26:31.520Z,66.00
2022-11-10T12:29:01.257Z,66.00
2022-11-10T12:31:29.859Z,65.90
2022-11-10T12:34:01.965Z,65.90
2022-11-10T12:36:29.540Z,66.00
2022-11-10T12:39:03.082Z,65.90
2022-11-10T12:41:49.349Z,66.00
2022-11-10T12:44:39.399Z,66.10
2022-11-10T12:47:07.079Z,66.00
2022-11-10T12:49:36.551Z,66.00
2022-11-10T12:52:06.363Z,66.10
2022-11-10T12:54:34.725Z,66.10
2022-11-10T12:57:04.794Z,66.10
2022-11-10T12:59:33.322Z,66.20
2022-11-10T13:02:06.157Z,66.30
2022-11-10T13:04:33.186Z,66.20
2022-11-10T13:07:01.648Z,66.10
2022-11-10T13:09:30.194Z,66.00
2022-11-10T13:12:23.387Z,66.00
2022-11-10T13:14:50.070Z,66.10
2022-11-10T13:17:25.746Z,66.20
2022-11-10T13:19:53.606Z,66.30
2022-11-10T13:22:33.645Z,66.30
2022-11-10T13:25:18.994Z,66.30
2022-11-10T13:27:45.668Z,66.20
2022-11-10T13:30:32.483Z,66.20
2022-11-10T13:33:19.079Z,66.30
2022-11-10T13:35:54.955Z,66.40
2022-11-10T13:38:31.572Z,66.40
2022-11-10T13:41:16.566Z,66.40
2022-11-10T13:43:50.836Z,66.40
2022-11-10T13:46:18.203Z,66.30
2022-11-10T13:48:53.767Z,66.40
2022-11-10T13:51:41.383Z,66.40
2022-11-10T13:54:11.071Z,67.00
2022-11-10T13:57:13.226Z,66.30
2022-11-10T13:59:52.950Z,66.30
2022-11-10T14:02:38.988Z,66.40
2022-11-10T14:05:05.687Z,66.40
2022-11-10T14:07:37.843Z,66.60
2022-11-10T14:10:07.590Z,66.70
2022-11-10T14:12:38.861Z,66.50
2022-11-10T14:15:05.630Z,66.40
2022-11-10T14:17:34.532Z,66.40
2022-11-10T14:20:01.646Z,66.40
2022-11-10T14:22:28.477Z,66.40
2022-11-10T14:25:04.242Z,66.40
2022-11-10T14:27:32.525Z,66.30
2022-11-10T14:30:05.498Z,66.00
2022-11-10T14:32:32.277Z,65.90
2022-11-10T14:35:00.489Z,65.70
2022-11-10T14:37:28.783Z,65.70
2022-11-10T14:39:56.972Z,65.70
2022-11-10T14:42:24.562Z,65.70
2022-11-10T14:45:04.677Z,65.60
2022-11-10T14:47:31.447Z,65.60
2022-11-10T14:50:24.585Z,65.60
2022-11-10T14:52:53.730Z,65.60
2022-11-10T14:55:28.570Z,65.70
2022-11-10T14:58:07.681Z,65.60
2022-11-10T15:00:36.826Z,66.00
2022-11-10T15:03:04.790Z,65.90
2022-11-10T15:05:31.673Z,65.90
2022-11-10T15:07:58.833Z,65.80
2022-11-10T15:10:26.758Z,65.90
2022-11-10T15:13:00.557Z,65.70
2022-11-10T15:15:27.245Z,65.80
2022-11-10T15:17:53.972Z,65.90
2022-11-10T15:20:27.914Z,66.00
2022-11-10T15:22:57.089Z,66.00
2022-11-10T15:25:25.988Z,66.00
2022-11-10T15:28:12.904Z,65.90
2022-11-10T15:30:48.024Z,65.90
2022-11-10T15:33:16.697Z,66.00
2022-11-10T15:35:43.386Z,66.00
2022-11-10T15:38:14.534Z,66.00
2022-11-10T15:40:51.446Z,66.20
2022-11-10T15:43:25.206Z,66.20
2022-11-10T15:45:57.872Z,66.20
2022-11-10T15:48:26.545Z,66.20
2022-11-10T15:50:54.805Z,66.00
2022-11-10T15:53:26.651Z,66.00
2022-11-10T15:55:53.330Z,66.00
2022-11-10T15:58:21.430Z,66.10
2022-11-10T16:00:48.779Z,66.30
2022-11-10T16:03:18.177Z,66.20
2022-11-10T16:05:45.218Z,66.20
2022-11-10T16:08:13.898Z,66.10
2022-11-10T16:10:48.035Z,66.10
2022-11-10T16:13:16.266Z,66.10
2022-11-10T16:15:43.052Z,66.10
2022-11-10T16:18:11.846Z,66.20
2022-11-10T16:20:38.537Z,66.30
2022-11-10T16:23:05.262Z,66.30
2022-11-10T16:25:32.351Z,66.20
2022-11-10T16:28:02.515Z,66.20
2022-11-10T16:30:29.315Z,66.20
2022-11-10T16:32:56.048Z,66.20
2022-11-10T16:35:22.701Z,66.30
2022-11-10T16:37:49.392Z,66.30
2022-11-10T16:40:20.606Z,66.20
2022-11-10T16:42:47.412Z,66.20
2022-11-10T16:45:15.129Z,66.20
2022-11-10T16:47:43.140Z,66.20
2022-11-10T16:50:39.170Z,66.20
2022-11-10T16:53:06.726Z,66.30
2022-11-10T16:55:33.384Z,66.30
2022-11-10T16:58:00.080Z,66.30
2022-11-10T17:00:27.457Z,66.20
2022-11-10T17:03:00.666Z,66.20
2022-11-10T17:05:27.373Z,66.30
2022-11-10T17:07:54.398Z,66.20
2022-11-10T17:10:21.691Z,66.40
2022-11-10T17:12:48.452Z,66.30
2022-11-10T17:15:15.522Z,66.30
2022-11-10T17:17:43.905Z,66.30
2022-11-10T17:20:18.251Z,66.40
2022-11-10T17:22:45.162Z,66.30
2022-11-10T17:25:26.901Z,66.20
2022-11-10T17:27:53.892Z,66.40
2022-11-10T17:30:20.907Z,66.40
2022-11-10T17:33:05.245Z,66.40
2022-11-10T17:35:37.712Z,66.40
2022-11-10T17:38:11.335Z,66.20
2022-11-10T17:40:38.165Z,66.40
2022-11-10T17:43:04.813Z,66.30
2022-11-10T17:45:31.474Z,66.30
2022-11-10T17:47:58.457Z,66.40
2022-11-10T17:50:25.148Z,66.40
2022-11-10T17:52:51.808Z,66.40
2022-11-10T17:55:22.619Z,66.30
2022-11-10T17:57:49.380Z,66.40
2022-11-10T18:00:17.060Z,66.90
2022-11-10T18:02:44.726Z,66.30
2022-11-10T18:05:15.675Z,66.20
2022-11-10T18:07:43.279Z,66.10
2022-11-10T18:10:12.283Z,65.80
2022-11-10T18:12:40.633Z,65.60
2022-11-10T18:15:07.979Z,65.50
2022-11-10T18:17:34.724Z,66.20
2022-11-10T18:20:01.429Z,65.40
2022-11-10T18:22:28.156Z,65.50
2022-11-10T18:24:55.010Z,65.50
2022-11-10T18:27:21.763Z,65.40
2022-11-10T18:29:48.534Z,65.60
2022-11-10T18:32:15.345Z,65.50
2022-11-10T18:34:42.020Z,65.50
2022-11-10T18:37:08.775Z,65.40
2022-11-10T18:39:35.543Z,65.40
2022-11-10T18:42:02.332Z,65.60
2022-11-10T18:44:29.715Z,65.60
2022-11-10T18:46:56.782Z,65.70
2022-11-10T18:49:23.557Z,65.80
2022-11-10T18:51:50.303Z,65.80
2022-11-10T18:54:20.405Z,65.80
2022-11-10T18:56:47.116Z,65.90
2022-11-10T18:59:15.088Z,65.80
2022-11-10T19:01:41.994Z,65.90
2022-11-10T19:04:08.990Z,65.70
2022-11-10T19:06:35.907Z,65.90
2022-11-10T19:09:04.143Z,65.90
2022-11-10T19:11:31.680Z,66.00
2022-11-10T19:14:01.976Z,66.10
2022-11-10T19:16:32.087Z,66.00
2022-11-10T19:18:58.852Z,66.30
2022-11-10T19:21:28.665Z,65.90
2022-11-10T19:23:56.134Z,66.00
2022-11-10T19:26:24.368Z,66.00
2022-11-10T19:28:53.261Z,66.10
2022-11-10T19:31:22.647Z,66.10
2022-11-10T19:33:50.482Z,66.10
2022-11-10T19:36:19.004Z,66.20
2022-11-10T19:38:45.924Z,66.20
2022-11-10T19:41:14.052Z,66.10
2022-11-10T19:43:46.223Z,66.10
2022-11-10T19:46:27.754Z,66.10
2022-11-10T19:48:54.825Z,66.20
2022-11-10T19:51:22.787Z,66.20
2022-11-10T19:53:55.011Z,66.40
2022-11-10T19:56:26.271Z,66.30
2022-11-10T19:58:56.083Z,66.40
2022-11-10T20:01:22.853Z,66.30
2022-11-10T20:03:51.877Z,66.30
2022-11-10T20:06:21.232Z,66.40
2022-11-10T20:08:48.364Z,66.40
2022-11-10T20:11:16.738Z,66.40
2022-11-10T20:13:43.700Z,66.40
2022-11-10T20:16:12.027Z,66.40
2022-11-10T20:18:39.673Z,66.40
2022-11-10T20:21:13.789Z,66.40
2022-11-10T20:23:40.555Z,66.40
2022-11-10T20:26:08.784Z,66.30
2022-11-10T20:28:38.176Z,66.40
2022-11-10T20:31:09.550Z,66.40
2022-11-10T20:33:36.516Z,66.40
2022-11-10T20:36:07.513Z,66.40
2022-11-10T20:38:34.270Z,66.40
2022-11-10T20:41:01.652Z,66.40
2022-11-10T20:43:28.477Z,66.30
2022-11-10T20:45:55.196Z,66.30
2022-11-10T20:48:21.960Z,66.30
2022-11-10T20:50:48.658Z,66.30
2022-11-10T20:53:15.395Z,66.30
2022-11-10T20:55:53.423Z,66.30
2022-11-10T20:58:21.094Z,66.30
2022-11-10T21:00:47.823Z,66.30
2022-11-10T21:03:14.530Z,66.30
2022-11-10T21:05:41.213Z,66.30
2022-11-10T21:08:07.914Z,66.40
2022-11-10T21:10:34.619Z,66.40
2022-11-10T21:13:01.318Z,66.50
2022-11-10T21:15:28.011Z,66.50
2022-11-10T21:17:54.761Z,66.50
2022-11-10T21:20:21.437Z,66.50
2022-11-10T21:22:48.131Z,66.60
2022-11-10T21:25:16.493Z,66.60
2022-11-10T21:27:43.146Z,66.50
2022-11-10T21:30:22.616Z,66.60
2022-11-10T21:32:49.360Z,66.60
2022-11-10T21:35:16.591Z,66.60
2022-11-10T21:37:43.283Z,66.70
2022-11-10T21:40:10.489Z,66.70
2022-11-10T21:42:37.174Z,66.70
2022-11-10T21:45:04.038Z,66.70
2022-11-10T21:47:30.743Z,66.70
2022-11-10T21:49:57.434Z,66.60
2022-11-10T21:52:24.134Z,66.60
2022-11-10T21:54:50.835Z,66.60
2022-11-10T21:57:17.523Z,66.60
2022-11-10T21:59:44.201Z,66.60
2022-11-10T22:02:10.939Z,66.60
2022-11-10T22:04:37.681Z,66.70
2022-11-10T22:07:23.131Z,66.70
2022-11-10T22:10:09.187Z,66.60
2022-11-10T22:12:54.617Z,66.60
2022-11-10T22:15:40.076Z,66.70
2022-11-10T22:18:35.873Z,66.80
2022-11-10T22:21:05.409Z,66.80
2022-11-10T22:23:50.790Z,66.80
2022-11-10T22:26:17.891Z,66.80
2022-11-10T22:28:45.097Z,67.50
2022-11-10T22:31:12.426Z,66.50
2022-11-10T22:33:40.193Z,66.60
2022-11-10T22:36:08.833Z,66.60
2022-11-10T22:38:36.683Z,66.60
2022-11-10T22:41:22.083Z,66.70
2022-11-10T22:44:03.952Z,66.60
2022-11-10T22:46:32.692Z,66.50
2022-11-10T22:48:59.374Z,66.60
2022-11-10T22:51:26.762Z,66.50
2022-11-10T22:53:53.455Z,66.60
2022-11-10T22:56:22.087Z,66.60
2022-11-10T22:58:48.851Z,66.60
2022-11-10T23:01:15.654Z,66.60
2022-11-10T23:03:42.370Z,66.50
2022-11-10T23:06:09.171Z,66.60
2022-11-10T23:08:35.898Z,66.70
2022-11-10T23:11:07.320Z,66.50
2022-11-10T23:13:34.874Z,66.40
2022-11-10T23:16:02.710Z,66.60
2022-11-10T23:18:29.731Z,66.50
2022-11-10T23:21:00.437Z,66.60
2022-11-10T23:23:27.536Z,66.50
2022-11-10T23:26:01.599Z,66.40
2022-11-10T23:28:28.906Z,66.60
2022-11-10T23:31:01.543Z,66.40
2022-11-10T23:33:32.526Z,66.50
2022-11-10T23:35:59.887Z,66.30
2022-11-10T23:38:28.872Z,66.50
2022-11-10T23:40:56.290Z,66.30
2022-11-10T23:43:23.657Z,66.40
2022-11-10T23:46:06.497Z,66.30
2022-11-10T23:48:34.198Z,66.40
2022-11-10T23:51:00.914Z,66.50
2022-11-10T23:53:27.655Z,66.30
2022-11-10T23:55:58.419Z,66.30
2022-11-10T23:58:25.171Z,66.40
